createdAt,value
2022-09-01T00:00:18.419Z,14.52
2022-09-01T00:02:45.265Z,14.53
2022-09-01T00:05:12.063Z,14.35
2022-09-01T00:07:38.482Z,15.09
2022-09-01T00:10:05.244Z,14.51
2022-09-01T00:12:32.173Z,14.64
2022-09-01T00:14:58.884Z,14.47
2022-09-01T00:17:26.129Z,14.68
2022-09-01T00:19:52.671Z,14.53
2022-09-01T00:22:20.129Z,14.28
2022-09-01T00:24:46.887Z,14.27
2022-09-01T00:27:13.383Z,13.72
2022-09-01T00:29:43.424Z,14.01
2022-09-01T00:32:10.936Z,13.99
2022-09-01T00:34:37.459Z,13.86
2022-09-01T00:37:04.348Z,14.45
2022-09-01T00:39:30.875Z,14.19
2022-09-01T00:41:57.701Z,13.95
2022-09-01T00:44:24.712Z,14.10
2022-09-01T00:46:55.144Z,13.35
2022-09-01T00:49:22.228Z,13.90
2022-09-01T00:51:48.687Z,13.50
2022-09-01T00:54:15.512Z,12.96
2022-09-01T00:56:42.115Z,13.67
2022-09-01T00:59:13.564Z,14.03
2022-09-01T01:01:41.319Z,14.19
2022-09-01T01:04:08.045Z,14.83
2022-09-01T01:06:34.613Z,14.57
2022-09-01T01:09:03.282Z,14.49
2022-09-01T01:11:29.885Z,14.99
2022-09-01T01:13:57.157Z,14.61
2022-09-01T01:16:24.668Z,14.67
2022-09-01T01:18:51.248Z,14.87
2022-09-01T01:21:17.852Z,14.59
2022-09-01T01:23:44.800Z,14.23
2022-09-01T01:26:12.002Z,14.27
2022-09-01T01:28:38.800Z,14.47
2022-09-01T01:31:05.606Z,14.02
2022-09-01T01:33:32.161Z,14.01
2022-09-01T01:35:58.766Z,14.68
2022-09-01T01:38:25.547Z,14.58
2022-09-01T01:40:52.079Z,14.94
2022-09-01T01:43:21.333Z,14.90
2022-09-01T01:45:48.156Z,14.24
2022-09-01T01:48:14.702Z,14.33
2022-09-01T01:50:41.182Z,14.45
2022-09-01T01:53:10.997Z,14.99
2022-09-01T01:55:37.880Z,14.68
2022-09-01T01:58:05.931Z,14.14
2022-09-01T02:00:32.537Z,14.42
2022-09-01T02:02:58.969Z,14.18
2022-09-01T02:05:25.452Z,14.42
2022-09-01T02:07:52.152Z,14.03
2022-09-01T02:10:19.090Z,13.56
2022-09-01T02:12:45.734Z,13.67
2022-09-01T02:15:12.211Z,13.53
2022-09-01T02:17:38.640Z,13.26
2022-09-01T02:20:05.072Z,13.70
2022-09-01T02:22:31.811Z,13.86
2022-09-01T02:24:58.275Z,13.47
2022-09-01T02:27:24.941Z,14.22
2022-09-01T02:29:51.689Z,13.95
2022-09-01T02:32:18.093Z,14.18
2022-09-01T02:34:44.639Z,13.53
2022-09-01T02:37:11.487Z,14.25
2022-09-01T02:39:38.462Z,13.88
2022-09-01T02:42:04.929Z,13.79
2022-09-01T02:44:31.552Z,13.74
2022-09-01T02:46:58.144Z,14.26
2022-09-01T02:49:24.773Z,14.79
2022-09-01T02:51:51.596Z,13.60
2022-09-01T02:54:17.993Z,13.86
2022-09-01T02:56:44.398Z,13.84
2022-09-01T02:59:11.431Z,14.30
2022-09-01T03:01:37.960Z,14.76
2022-09-01T03:04:04.526Z,14.01
2022-09-01T03:06:31.000Z,14.60
2022-09-01T03:08:57.426Z,14.62
2022-09-01T03:11:23.864Z,14.12
2022-09-01T03:13:50.839Z,14.20
2022-09-01T03:16:17.369Z,14.37
2022-09-01T03:18:43.896Z,14.83
2022-09-01T03:21:10.423Z,15.30
2022-09-01T03:23:36.848Z,15.19
2022-09-01T03:26:03.331Z,15.11
2022-09-01T03:28:30.034Z,15.21
2022-09-01T03:30:56.589Z,15.43
2022-09-01T03:33:23.356Z,14.58
2022-09-01T03:35:50.166Z,14.74
2022-09-01T03:38:16.607Z,14.72
2022-09-01T03:40:43.305Z,14.97
2022-09-01T03:43:09.877Z,14.62
2022-09-01T03:45:39.424Z,14.63
2022-09-01T03:48:06.163Z,14.73
2022-09-01T03:50:32.975Z,13.24
2022-09-01T03:52:59.422Z,14.04
2022-09-01T03:55:26.043Z,14.47
2022-09-01T03:57:53.160Z,13.34
2022-09-01T04:00:19.745Z,13.20
2022-09-01T04:02:46.399Z,12.86
2022-09-01T04:05:19.143Z,13.29
2022-09-01T04:07:45.557Z,12.84
2022-09-01T04:10:12.017Z,13.27
2022-09-01T04:12:39.469Z,13.45
2022-09-01T04:15:06.462Z,13.14
2022-09-01T04:17:32.972Z,13.52
2022-09-01T04:19:59.862Z,13.27
2022-09-01T04:22:26.300Z,13.44
2022-09-01T04:24:52.818Z,12.90
2022-09-01T04:27:19.333Z,13.23
2022-09-01T04:29:45.735Z,13.58
2022-09-01T04:32:12.589Z,12.92
2022-09-01T04:34:39.101Z,13.04
2022-09-01T04:37:05.521Z,13.42
2022-09-01T04:39:32.023Z,13.32
2022-09-01T04:41:58.528Z,13.61
2022-09-01T04:44:24.970Z,13.53
2022-09-01T04:46:52.078Z,13.57
2022-09-01T04:49:19.182Z,13.05
2022-09-01T04:51:48.037Z,13.50
2022-09-01T04:54:18.058Z,14.00
2022-09-01T04:56:44.883Z,13.36
2022-09-01T04:59:11.569Z,12.96
2022-09-01T05:01:38.026Z,12.74
2022-09-01T05:04:04.522Z,13.54
2022-09-01T05:06:30.938Z,14.16
2022-09-01T05:08:57.373Z,13.26
2022-09-01T05:11:23.935Z,13.43
2022-09-01T05:13:50.713Z,13.39
2022-09-01T05:16:19.430Z,12.98
2022-09-01T05:18:49.445Z,13.41
2022-09-01T05:21:17.555Z,13.65
2022-09-01T05:23:44.105Z,13.41
2022-09-01T05:26:11.916Z,12.95
2022-09-01T05:28:38.642Z,12.67
2022-09-01T05:31:05.164Z,13.32
2022-09-01T05:33:31.587Z,13.32
2022-09-01T05:35:58.272Z,13.88
2022-09-01T05:38:25.683Z,13.18
2022-09-01T05:40:52.643Z,13.19
2022-09-01T05:43:19.337Z,13.30
2022-09-01T05:46:05.653Z,13.06
2022-09-01T05:48:32.583Z,13.37
2022-09-01T05:50:59.037Z,12.64
2022-09-01T05:53:25.643Z,12.34
2022-09-01T05:55:53.627Z,12.67
2022-09-01T05:58:20.161Z,13.34
2022-09-01T06:00:46.758Z,12.93
2022-09-01T06:03:13.915Z,13.05
2022-09-01T06:05:40.469Z,13.01
2022-09-01T06:08:09.242Z,13.53
2022-09-01T06:10:35.979Z,13.90
2022-09-01T06:13:02.642Z,13.06
2022-09-01T06:15:29.575Z,12.13
2022-09-01T06:17:56.299Z,13.44
2022-09-01T06:20:23.169Z,13.55
2022-09-01T06:22:49.584Z,14.06
2022-09-01T06:25:16.366Z,13.72
2022-09-01T06:27:42.820Z,13.46
2022-09-01T06:30:09.240Z,13.54
2022-09-01T06:32:35.789Z,13.06
2022-09-01T06:35:02.447Z,13.33
2022-09-01T06:37:31.895Z,13.72
2022-09-01T06:39:58.782Z,13.35
2022-09-01T06:42:25.313Z,13.62
2022-09-01T06:44:51.789Z,14.09
2022-09-01T06:47:18.409Z,13.39
2022-09-01T06:49:45.075Z,13.20
2022-09-01T06:52:11.970Z,13.80
2022-09-01T06:54:38.568Z,14.22
2022-09-01T07:02:38.030Z,14.01
2022-09-01T07:05:04.795Z,14.34
2022-09-01T07:10:22.715Z,12.69
2022-09-01T07:18:22.561Z,12.43
2022-09-01T07:24:10.674Z,12.75
2022-09-01T07:26:26.339Z,13.66
2022-09-01T07:29:01.088Z,13.58
2022-09-01T07:38:04.389Z,13.06
2022-09-01T07:39:48.176Z,14.06
2022-09-01T07:39:57.205Z,14.12
2022-09-01T07:56:01.046Z,13.00
2022-09-01T07:58:27.435Z,12.83
2022-09-01T08:00:53.833Z,13.11
2022-09-01T08:03:20.835Z,13.12
2022-09-01T08:05:47.343Z,13.58
2022-09-01T08:08:23.697Z,13.51
2022-09-01T08:10:52.962Z,13.78
2022-09-01T08:13:20.811Z,13.34
2022-09-01T08:18:50.556Z,13.98
2022-09-01T08:21:16.994Z,14.74
2022-09-01T08:23:44.367Z,13.79
2022-09-01T08:26:11.303Z,13.62
2022-09-01T08:28:37.725Z,14.14
2022-09-01T08:31:08.984Z,13.79
2022-09-01T08:33:37.438Z,13.28
2022-09-01T08:36:04.028Z,14.30
2022-09-01T08:38:30.417Z,15.24
2022-09-01T08:40:57.475Z,15.45
2022-09-01T08:43:24.265Z,14.94
2022-09-01T08:45:50.760Z,14.89
2022-09-01T08:51:11.579Z,15.82
2022-09-01T08:53:41.257Z,16.31
2022-09-01T08:56:07.700Z,16.03
2022-09-01T08:58:34.109Z,15.17
2022-09-01T09:01:00.589Z,15.12
2022-09-01T09:03:27.500Z,16.12
2022-09-01T09:05:54.201Z,14.81
2022-09-01T09:08:20.848Z,15.80
2022-09-01T09:10:47.673Z,16.23
2022-09-01T09:13:14.095Z,15.39
2022-09-01T09:15:40.615Z,16.44
2022-09-01T09:18:10.367Z,17.05
2022-09-01T09:20:54.111Z,16.70
2022-09-01T09:23:21.630Z,16.60
2022-09-01T09:25:50.587Z,15.84
2022-09-01T09:28:16.981Z,16.95
2022-09-01T09:30:43.768Z,16.69
2022-09-01T09:33:47.726Z,16.94
2022-09-01T09:35:56.990Z,17.34
2022-09-01T09:38:24.390Z,16.20
2022-09-01T09:41:13.862Z,14.98
2022-09-01T09:43:37.552Z,16.24
2022-09-01T09:46:23.302Z,17.05
2022-09-01T09:48:51.320Z,17.06
2022-09-01T09:51:17.727Z,16.52
2022-09-01T09:53:44.372Z,16.13
2022-09-01T09:56:10.835Z,14.99
2022-09-01T09:58:37.490Z,15.63
2022-09-01T10:01:04.059Z,16.67
2022-09-01T10:03:31.745Z,17.35
2022-09-01T10:05:58.117Z,16.14
2022-09-01T10:08:24.534Z,17.35
2022-09-01T10:10:58.481Z,17.95
2022-09-01T10:13:25.917Z,17.96
2022-09-01T10:15:54.321Z,18.10
2022-09-01T10:18:28.387Z,17.98
2022-09-01T10:20:55.695Z,18.04
2022-09-01T10:23:22.472Z,17.89
2022-09-01T10:25:49.592Z,17.63
2022-09-01T10:28:20.686Z,15.52
2022-09-01T10:30:47.615Z,16.19
2022-09-01T10:33:20.067Z,17.03
2022-09-01T10:35:48.705Z,15.97
2022-09-01T10:38:16.015Z,15.97
2022-09-01T10:40:48.684Z,17.10
2022-09-01T10:43:15.615Z,16.47
2022-09-01T10:45:42.134Z,15.50
2022-09-01T10:48:13.044Z,16.01
2022-09-01T10:50:40.032Z,15.27
2022-09-01T10:53:07.490Z,15.56
2022-09-01T10:55:35.001Z,15.82
2022-09-01T10:59:30.386Z,16.73
2022-09-01T11:03:47.879Z,17.07
2022-09-01T11:06:18.337Z,16.48
2022-09-01T11:08:50.318Z,15.75
2022-09-01T11:11:17.685Z,15.86
2022-09-01T11:13:49.584Z,15.25
2022-09-01T11:16:45.484Z,16.00
2022-09-01T11:19:02.929Z,16.30
2022-09-01T11:21:29.655Z,17.33
2022-09-01T11:23:56.297Z,17.90
2022-09-01T11:26:22.763Z,17.87
2022-09-01T11:28:49.389Z,17.93
2022-09-01T11:31:17.035Z,18.42
2022-09-01T11:33:43.674Z,18.84
2022-09-01T11:36:10.893Z,18.41
2022-09-01T11:38:38.981Z,18.18
2022-09-01T11:41:05.904Z,18.14
2022-09-01T11:43:32.845Z,18.21
2022-09-01T11:45:59.508Z,18.65
2022-09-01T11:48:26.129Z,18.32
2022-09-01T11:50:52.713Z,18.96
2022-09-01T11:53:19.362Z,18.71
2022-09-01T11:55:49.011Z,18.13
2022-09-01T11:58:17.922Z,17.27
2022-09-01T12:00:44.615Z,17.88
2022-09-01T12:03:11.122Z,18.43
2022-09-01T12:05:38.162Z,18.64
2022-09-01T12:08:04.825Z,18.52
2022-09-01T12:10:33.172Z,18.95
2022-09-01T12:12:59.861Z,18.83
2022-09-01T12:15:26.322Z,18.50
2022-09-01T12:17:53.246Z,18.83
2022-09-01T12:20:20.171Z,17.37
2022-09-01T12:22:48.829Z,18.51
2022-09-01T12:25:15.276Z,18.79
2022-09-01T12:27:42.047Z,19.01
2022-09-01T12:30:09.382Z,18.98
2022-09-01T12:32:35.782Z,19.57
2022-09-01T12:35:09.347Z,19.26
2022-09-01T12:37:39.566Z,19.07
2022-09-01T12:40:07.552Z,18.11
2022-09-01T12:42:40.853Z,18.86
2022-09-01T12:45:09.169Z,17.49
2022-09-01T12:47:36.363Z,17.24
2022-09-01T12:50:03.426Z,16.91
2022-09-01T12:52:30.307Z,16.48
2022-09-01T12:54:56.747Z,16.53
2022-09-01T12:57:23.198Z,18.01
2022-09-01T12:59:49.850Z,18.40
2022-09-01T13:02:19.755Z,18.51
2022-09-01T13:04:46.290Z,18.57
2022-09-01T13:07:15.364Z,17.82
2022-09-01T13:09:41.841Z,16.97
2022-09-01T13:12:09.359Z,17.23
2022-09-01T13:14:36.148Z,18.00
2022-09-01T13:17:03.652Z,19.24
2022-09-01T13:19:30.713Z,19.54
2022-09-01T13:21:57.290Z,19.86
2022-09-01T13:24:28.078Z,20.42
2022-09-01T13:29:45.390Z,20.77
2022-09-01T13:32:20.719Z,19.99
2022-09-01T13:34:51.804Z,17.05
2022-09-01T13:37:18.541Z,17.68
2022-09-01T13:39:45.693Z,16.84
2022-09-01T13:42:12.558Z,17.33
2022-09-01T13:44:39.280Z,18.51
2022-09-01T13:50:07.110Z,20.09
2022-09-01T13:52:36.010Z,20.30
2022-09-01T13:55:02.648Z,19.30
2022-09-01T13:57:32.867Z,19.55
2022-09-01T14:00:03.346Z,20.14
2022-09-01T14:02:30.160Z,19.77
2022-09-01T14:04:56.974Z,18.42
2022-09-01T14:07:26.583Z,18.68
2022-09-01T14:09:53.243Z,19.71
2022-09-01T14:12:19.730Z,18.86
2022-09-01T14:17:33.690Z,18.08
2022-09-01T14:20:00.211Z,18.41
2022-09-01T14:22:27.073Z,17.86
2022-09-01T14:24:53.713Z,18.71
2022-09-01T14:27:20.478Z,18.57
2022-09-01T14:32:12.082Z,20.30
2022-09-01T14:34:38.570Z,20.22
2022-09-01T14:37:05.088Z,20.54
2022-09-01T14:39:35.612Z,19.44
2022-09-01T14:42:02.393Z,20.56
2022-09-01T14:44:28.851Z,20.96
2022-09-01T14:46:55.463Z,21.31
2022-09-01T14:49:22.585Z,21.26
2022-09-01T14:54:45.308Z,19.77
2022-09-01T14:59:58.178Z,20.02
2022-09-01T15:02:24.622Z,18.79
2022-09-01T15:04:51.101Z,18.77
2022-09-01T15:07:17.797Z,18.45
2022-09-01T15:09:44.255Z,18.26
2022-09-01T15:12:10.781Z,19.45
2022-09-01T15:14:37.673Z,20.04
2022-09-01T15:17:04.157Z,20.35
2022-09-01T15:19:31.046Z,20.90
2022-09-01T15:22:03.419Z,19.32
2022-09-01T15:24:30.215Z,19.73
2022-09-01T15:26:56.698Z,20.52
2022-09-01T15:29:23.500Z,19.74
2022-09-01T15:31:50.075Z,18.64
2022-09-01T15:34:16.522Z,18.92
2022-09-01T15:36:43.718Z,19.10
2022-09-01T15:39:10.603Z,19.45
2022-09-01T15:41:37.555Z,20.37
2022-09-01T15:44:04.299Z,19.81
2022-09-01T15:46:30.764Z,20.75
2022-09-01T15:48:57.276Z,20.03
2022-09-01T15:51:23.897Z,20.37
2022-09-01T15:53:53.625Z,20.68
2022-09-01T15:56:20.528Z,20.56
2022-09-01T15:59:01.131Z,20.33
2022-09-01T16:01:28.965Z,20.53
2022-09-01T16:03:55.837Z,20.09
2022-09-01T16:06:22.379Z,20.54
2022-09-01T16:08:49.888Z,19.51
2022-09-01T16:11:19.718Z,20.05
2022-09-01T16:13:46.775Z,20.84
2022-09-01T16:16:13.860Z,18.84
2022-09-01T16:18:40.649Z,19.56
2022-09-01T16:21:07.264Z,18.81
2022-09-01T16:23:33.770Z,18.94
2022-09-01T16:26:00.794Z,19.31
2022-09-01T16:28:30.374Z,19.60
2022-09-01T16:30:56.910Z,18.86
2022-09-01T16:33:23.685Z,18.94
2022-09-01T16:35:50.091Z,19.64
2022-09-01T16:38:16.549Z,19.65
2022-09-01T16:40:43.396Z,19.82
2022-09-01T16:43:10.020Z,19.85
2022-09-01T16:45:40.895Z,20.07
2022-09-01T16:48:09.555Z,20.45
2022-09-01T16:50:35.982Z,20.65
2022-09-01T16:53:02.456Z,20.90
2022-09-01T16:55:29.214Z,20.32
2022-09-01T16:57:59.168Z,20.10
2022-09-01T17:00:25.807Z,20.11
2022-09-01T17:02:52.458Z,19.85
2022-09-01T17:05:19.011Z,19.76
2022-09-01T17:07:45.493Z,19.86
2022-09-01T17:10:12.599Z,19.44
2022-09-01T17:12:39.215Z,19.82
2022-09-01T17:15:05.793Z,19.59
2022-09-01T17:17:32.555Z,19.07
2022-09-01T17:19:59.479Z,18.41
2022-09-01T17:22:25.893Z,19.37
2022-09-01T17:24:52.415Z,18.79
2022-09-01T17:27:18.791Z,19.30
2022-09-01T17:29:45.225Z,19.49
2022-09-01T17:32:12.334Z,18.64
2022-09-01T17:34:38.807Z,18.75
2022-09-01T17:37:08.404Z,18.30
2022-09-01T17:39:35.117Z,18.79
2022-09-01T17:42:01.501Z,18.43
2022-09-01T17:44:29.960Z,19.06
2022-09-01T17:46:56.726Z,18.84
2022-09-01T17:49:23.659Z,18.29
2022-09-01T17:51:50.142Z,16.94
2022-09-01T17:54:16.831Z,17.81
2022-09-01T17:56:43.198Z,18.46
2022-09-01T17:59:09.610Z,18.34
2022-09-01T18:01:36.109Z,17.56
2022-09-01T18:04:02.516Z,18.16
2022-09-01T18:06:32.744Z,17.12
2022-09-01T18:08:59.240Z,15.93
2022-09-01T18:11:25.657Z,17.61
2022-09-01T18:13:53.833Z,17.33
2022-09-01T18:16:20.914Z,17.69
2022-09-01T18:18:47.456Z,17.78
2022-09-01T18:21:13.890Z,17.71
2022-09-01T18:23:40.394Z,15.84
2022-09-01T18:26:06.932Z,15.80
2022-09-01T18:28:35.519Z,16.77
2022-09-01T18:31:02.149Z,16.91
2022-09-01T18:33:28.617Z,16.36
2022-09-01T18:35:55.019Z,16.20
2022-09-01T18:38:21.785Z,15.73
2022-09-01T18:40:48.394Z,15.55
2022-09-01T18:43:14.906Z,14.67
2022-09-01T18:45:41.551Z,14.72
2022-09-01T18:48:07.963Z,15.27
2022-09-01T18:50:34.417Z,14.72
2022-09-01T18:53:01.479Z,15.11
2022-09-01T18:55:28.330Z,16.03
2022-09-01T18:57:54.981Z,15.29
2022-09-01T19:00:27.973Z,16.27
2022-09-01T19:02:58.568Z,16.81
2022-09-01T19:05:28.077Z,16.95
2022-09-01T19:07:57.920Z,17.02
2022-09-01T19:10:26.346Z,17.07
2022-09-01T19:12:53.310Z,16.58
2022-09-01T19:15:21.168Z,16.66
2022-09-01T19:17:49.015Z,16.45
2022-09-01T19:20:15.961Z,15.70
2022-09-01T19:22:42.810Z,16.08
2022-09-01T19:25:10.719Z,15.68
2022-09-01T19:27:38.137Z,16.00
2022-09-01T19:30:05.012Z,16.35
2022-09-01T19:32:31.484Z,15.92
2022-09-01T19:34:59.415Z,15.95
2022-09-01T19:37:27.877Z,16.15
2022-09-01T19:39:54.773Z,16.77
2022-09-01T19:42:21.913Z,16.48
2022-09-01T19:44:48.700Z,16.37
2022-09-01T19:47:15.468Z,16.58
2022-09-01T19:52:09.237Z,17.12
2022-09-01T19:54:35.738Z,16.32
2022-09-01T19:57:02.419Z,16.38
2022-09-01T19:59:30.539Z,15.82
2022-09-01T20:01:59.988Z,16.05
2022-09-01T20:04:26.966Z,15.99
2022-09-01T20:06:55.296Z,15.92
2022-09-01T20:09:21.738Z,15.78
2022-09-01T20:11:48.338Z,15.88
2022-09-01T20:14:17.633Z,15.93
2022-09-01T20:16:44.274Z,15.81
2022-09-01T20:19:11.152Z,15.91
2022-09-01T20:21:38.793Z,15.70
2022-09-01T20:24:09.458Z,15.99
2022-09-01T20:26:37.261Z,15.93
2022-09-01T20:29:03.697Z,16.05
2022-09-01T20:31:30.760Z,16.23
2022-09-01T20:33:57.294Z,16.39
2022-09-01T20:36:23.884Z,16.31
2022-09-01T20:38:50.389Z,16.66
2022-09-01T20:41:17.351Z,15.97
2022-09-01T20:43:43.811Z,15.69
2022-09-01T20:46:10.321Z,15.42
2022-09-01T20:48:38.000Z,15.34
2022-09-01T20:51:04.618Z,15.73
2022-09-01T20:53:31.267Z,15.38
2022-09-01T20:55:58.089Z,15.17
2022-09-01T20:58:26.768Z,16.01
2022-09-01T21:00:55.834Z,15.47
2022-09-01T21:03:34.055Z,15.06
2022-09-01T21:06:01.149Z,15.41
2022-09-01T21:08:27.958Z,15.55
2022-09-01T21:10:54.427Z,15.78
2022-09-01T21:13:24.821Z,15.41
2022-09-01T21:15:52.233Z,15.35
2022-09-01T21:18:18.745Z,15.47
2022-09-01T21:20:46.425Z,15.34
2022-09-01T21:23:13.268Z,15.40
2022-09-01T21:25:39.936Z,14.93
2022-09-01T21:28:06.438Z,15.42
2022-09-01T21:30:34.610Z,15.69
2022-09-01T21:33:01.141Z,15.56
2022-09-01T21:35:27.950Z,15.64
2022-09-01T21:37:56.465Z,15.92
2022-09-01T21:40:23.109Z,15.05
2022-09-01T21:42:50.633Z,14.88
2022-09-01T21:45:17.351Z,15.35
2022-09-01T21:47:44.893Z,15.43
2022-09-01T21:50:11.441Z,15.46
2022-09-01T21:52:40.403Z,14.52
2022-09-01T21:55:07.064Z,14.42
2022-09-01T21:57:33.655Z,14.27
2022-09-01T22:00:02.083Z,14.39
2022-09-01T22:02:28.876Z,14.98
2022-09-01T22:04:55.476Z,15.14
2022-09-01T22:07:23.087Z,15.27
2022-09-01T22:09:49.605Z,14.92
2022-09-01T22:12:16.105Z,14.39
2022-09-01T22:14:42.721Z,14.92
2022-09-01T22:17:09.190Z,15.54
2022-09-01T22:19:37.924Z,14.69
2022-09-01T22:22:07.821Z,15.02
2022-09-01T22:24:34.636Z,14.74
2022-09-01T22:27:01.166Z,14.39
2022-09-01T22:29:27.864Z,14.15
2022-09-01T22:31:55.708Z,14.21
2022-09-01T22:34:22.865Z,14.49
2022-09-01T22:36:50.651Z,14.07
2022-09-01T22:39:17.405Z,13.94
2022-09-01T22:41:50.418Z,14.33
2022-09-01T22:44:25.573Z,14.31
2022-09-01T22:46:52.200Z,14.07
2022-09-01T22:49:20.946Z,13.74
2022-09-01T22:51:53.319Z,14.19
2022-09-01T22:54:19.868Z,14.35
2022-09-01T22:56:46.401Z,13.72
2022-09-01T22:59:13.693Z,14.36
2022-09-01T23:01:40.876Z,14.23
2022-09-01T23:04:07.465Z,13.89
2022-09-01T23:06:41.970Z,13.20
2022-09-01T23:09:10.071Z,13.86
2022-09-01T23:11:36.803Z,13.81
2022-09-01T23:14:04.499Z,14.58
2022-09-01T23:16:31.022Z,14.86
2022-09-01T23:18:57.585Z,14.74
2022-09-01T23:21:24.483Z,14.55
2022-09-01T23:23:58.836Z,14.53
2022-09-01T23:26:25.855Z,14.78
2022-09-01T23:28:52.368Z,14.94
2022-09-01T23:31:19.964Z,14.96
2022-09-01T23:33:47.994Z,14.69
2022-09-01T23:36:14.678Z,14.20
2022-09-01T23:38:41.239Z,14.24
2022-09-01T23:41:08.912Z,14.20
2022-09-01T23:43:35.624Z,14.71
2022-09-01T23:46:02.140Z,14.79
2022-09-01T23:48:28.912Z,14.74
2022-09-01T23:50:55.400Z,14.74
2022-09-01T23:53:22.407Z,14.41
2022-09-01T23:55:49.218Z,14.92
2022-09-01T23:58:17.733Z,15.08
